sensor_id;sensor_type;location;lat;lon;timestamp;P1;durP1;ratioP1;P2;durP2;ratioP2
70733;SDS011;58320;48.804;9.252;2024-03-22T00:01:53;20.33;;;12.00;;
70733;SDS011;58320;48.804;9.252;2024-03-22T00:04:19;20.30;;;12.32;;
70733;SDS011;58320;48.804;9.252;2024-03-22T00:06:46;22.93;;;12.63;;
70733;SDS011;58320;48.804;9.252;2024-03-22T00:09:13;23.98;;;13.43;;
70733;SDS011;58320;48.804;9.252;2024-03-22T00:11:40;24.73;;;13.70;;
70733;SDS011;58320;48.804;9.252;2024-03-22T00:14:07;21.75;;;12.35;;
70733;SDS011;58320;48.804;9.252;2024-03-22T00:16:33;26.20;;;14.60;;
70733;SDS011;58320;48.804;9.252;2024-03-22T00:18:59;23.17;;;14.20;;
70733;SDS011;58320;48.804;9.252;2024-03-22T00:21:25;24.63;;;14.82;;
70733;SDS011;58320;48.804;9.252;2024-03-22T00:23:51;25.03;;;13.63;;
70733;SDS011;58320;48.804;9.252;2024-03-22T00:26:17;23.07;;;13.73;;
70733;SDS011;58320;48.804;9.252;2024-03-22T00:28:42;27.73;;;14.88;;
70733;SDS011;58320;48.804;9.252;2024-03-22T00:31:08;27.73;;;15.17;;
70733;SDS011;58320;48.804;9.252;2024-03-22T00:33:34;25.52;;;15.40;;
70733;SDS011;58320;48.804;9.252;2024-03-22T00:36:00;21.92;;;13.57;;
70733;SDS011;58320;48.804;9.252;2024-03-22T00:38:26;28.10;;;14.57;;
70733;SDS011;58320;48.804;9.252;2024-03-22T00:40:52;25.75;;;14.25;;
70733;SDS011;58320;48.804;9.252;2024-03-22T00:43:17;26.83;;;14.43;;
70733;SDS011;58320;48.804;9.252;2024-03-22T00:45:45;24.38;;;14.52;;
70733;SDS011;58320;48.804;9.252;2024-03-22T00:48:10;24.95;;;14.02;;
70733;SDS011;58320;48.804;9.252;2024-03-22T00:50:36;21.90;;;13.30;;
70733;SDS011;58320;48.804;9.252;2024-03-22T00:53:02;26.23;;;15.15;;
70733;SDS011;58320;48.804;9.252;2024-03-22T00:55:28;21.53;;;13.13;;
70733;SDS011;58320;48.804;9.252;2024-03-22T00:57:54;22.27;;;12.77;;
70733;SDS011;58320;48.804;9.252;2024-03-22T01:00:20;27.70;;;15.77;;
70733;SDS011;58320;48.804;9.252;2024-03-22T01:02:46;27.60;;;14.93;;
70733;SDS011;58320;48.804;9.252;2024-03-22T01:05:11;25.63;;;15.45;;
70733;SDS011;58320;48.804;9.252;2024-03-22T01:07:37;30.30;;;15.63;;
70733;SDS011;58320;48.804;9.252;2024-03-22T01:10:03;26.17;;;14.52;;
70733;SDS011;58320;48.804;9.252;2024-03-22T01:12:30;29.38;;;15.30;;
70733;SDS011;58320;48.804;9.252;2024-03-22T01:14:56;26.73;;;15.75;;
70733;SDS011;58320;48.804;9.252;2024-03-22T01:17:22;27.03;;;16.03;;
70733;SDS011;58320;48.804;9.252;2024-03-22T01:19:47;29.02;;;15.73;;
70733;SDS011;58320;48.804;9.252;2024-03-22T01:22:13;27.87;;;15.23;;
70733;SDS011;58320;48.804;9.252;2024-03-22T01:24:39;28.73;;;16.37;;
70733;SDS011;58320;48.804;9.252;2024-03-22T01:27:05;30.40;;;15.68;;
70733;SDS011;58320;48.804;9.252;2024-03-22T01:29:30;26.93;;;14.97;;
70733;SDS011;58320;48.804;9.252;2024-03-22T01:31:57;28.27;;;15.43;;
70733;SDS011;58320;48.804;9.252;2024-03-22T01:34:23;26.00;;;14.23;;
70733;SDS011;58320;48.804;9.252;2024-03-22T01:36:49;25.13;;;14.33;;
70733;SDS011;58320;48.804;9.252;2024-03-22T01:39:16;25.10;;;13.70;;
70733;SDS011;58320;48.804;9.252;2024-03-22T01:41:46;30.70;;;15.60;;
70733;SDS011;58320;48.804;9.252;2024-03-22T01:44:15;31.42;;;15.27;;
70733;SDS011;58320;48.804;9.252;2024-03-22T01:46:41;23.47;;;14.40;;
70733;SDS011;58320;48.804;9.252;2024-03-22T01:49:11;22.95;;;13.13;;
70733;SDS011;58320;48.804;9.252;2024-03-22T01:51:40;20.45;;;12.80;;
70733;SDS011;58320;48.804;9.252;2024-03-22T01:54:06;20.27;;;11.53;;
70733;SDS011;58320;48.804;9.252;2024-03-22T01:56:38;19.07;;;11.37;;
70733;SDS011;58320;48.804;9.252;2024-03-22T01:59:04;17.95;;;10.93;;
70733;SDS011;58320;48.804;9.252;2024-03-22T02:01:31;17.52;;;10.35;;
70733;SDS011;58320;48.804;9.252;2024-03-22T02:03:57;20.85;;;11.13;;
70733;SDS011;58320;48.804;9.252;2024-03-22T02:06:23;16.27;;;10.40;;
70733;SDS011;58320;48.804;9.252;2024-03-22T02:08:49;18.98;;;10.38;;
70733;SDS011;58320;48.804;9.252;2024-03-22T02:11:15;19.60;;;10.60;;
70733;SDS011;58320;48.804;9.252;2024-03-22T02:13:40;19.63;;;12.02;;
70733;SDS011;58320;48.804;9.252;2024-03-22T02:16:08;20.05;;;11.60;;
70733;SDS011;58320;48.804;9.252;2024-03-22T02:18:34;22.90;;;12.68;;
70733;SDS011;58320;48.804;9.252;2024-03-22T02:21:00;23.43;;;13.43;;
70733;SDS011;58320;48.804;9.252;2024-03-22T02:25:59;26.55;;;14.55;;
70733;SDS011;58320;48.804;9.252;2024-03-22T02:28:25;29.80;;;15.70;;
70733;SDS011;58320;48.804;9.252;2024-03-22T02:30:51;28.80;;;15.07;;
70733;SDS011;58320;48.804;9.252;2024-03-22T02:33:17;30.45;;;16.67;;
70733;SDS011;58320;48.804;9.252;2024-03-22T02:35:43;26.97;;;15.50;;
70733;SDS011;58320;48.804;9.252;2024-03-22T02:38:11;29.17;;;15.70;;
70733;SDS011;58320;48.804;9.252;2024-03-22T02:40:37;31.13;;;17.90;;
70733;SDS011;58320;48.804;9.252;2024-03-22T02:43:02;33.77;;;17.30;;
70733;SDS011;58320;48.804;9.252;2024-03-22T02:45:29;29.77;;;16.13;;
70733;SDS011;58320;48.804;9.252;2024-03-22T02:47:55;28.55;;;16.60;;
70733;SDS011;58320;48.804;9.252;2024-03-22T02:50:21;32.17;;;17.37;;
70733;SDS011;58320;48.804;9.252;2024-03-22T02:52:50;27.43;;;15.73;;
70733;SDS011;58320;48.804;9.252;2024-03-22T02:55:16;27.98;;;15.30;;
70733;SDS011;58320;48.804;9.252;2024-03-22T02:57:42;27.95;;;16.17;;
70733;SDS011;58320;48.804;9.252;2024-03-22T03:00:08;33.77;;;16.20;;
70733;SDS011;58320;48.804;9.252;2024-03-22T03:02:34;32.00;;;17.33;;
70733;SDS011;58320;48.804;9.252;2024-03-22T03:05:00;26.73;;;15.55;;
70733;SDS011;58320;48.804;9.252;2024-03-22T03:07:26;29.10;;;16.52;;
70733;SDS011;58320;48.804;9.252;2024-03-22T03:09:55;25.67;;;14.93;;
70733;SDS011;58320;48.804;9.252;2024-03-22T03:12:20;25.40;;;14.52;;
70733;SDS011;58320;48.804;9.252;2024-03-22T03:14:46;27.10;;;16.17;;
70733;SDS011;58320;48.804;9.252;2024-03-22T03:17:12;26.27;;;15.13;;
70733;SDS011;58320;48.804;9.252;2024-03-22T03:19:37;24.27;;;14.27;;
70733;SDS011;58320;48.804;9.252;2024-03-22T03:22:03;24.45;;;14.75;;
70733;SDS011;58320;48.804;9.252;2024-03-22T03:24:29;23.48;;;14.40;;
70733;SDS011;58320;48.804;9.252;2024-03-22T03:26:55;27.57;;;15.03;;
70733;SDS011;58320;48.804;9.252;2024-03-22T03:29:21;24.70;;;15.15;;
70733;SDS011;58320;48.804;9.252;2024-03-22T03:31:46;25.63;;;15.40;;
70733;SDS011;58320;48.804;9.252;2024-03-22T03:34:13;25.30;;;14.52;;
70733;SDS011;58320;48.804;9.252;2024-03-22T03:36:39;25.48;;;14.70;;
70733;SDS011;58320;48.804;9.252;2024-03-22T03:39:05;24.27;;;14.30;;
70733;SDS011;58320;48.804;9.252;2024-03-22T03:41:31;23.77;;;14.05;;
70733;SDS011;58320;48.804;9.252;2024-03-22T03:43:56;24.37;;;13.93;;
70733;SDS011;58320;48.804;9.252;2024-03-22T03:46:22;22.90;;;14.20;;
70733;SDS011;58320;48.804;9.252;2024-03-22T03:48:48;24.50;;;14.15;;
70733;SDS011;58320;48.804;9.252;2024-03-22T03:51:13;23.33;;;13.20;;
70733;SDS011;58320;48.804;9.252;2024-03-22T03:53:39;23.65;;;14.02;;
70733;SDS011;58320;48.804;9.252;2024-03-22T03:56:05;23.83;;;13.50;;
70733;SDS011;58320;48.804;9.252;2024-03-22T03:58:30;23.05;;;14.00;;
